Kota Kinabalu International Airport Kota Kinabalu MY
ICAO: WBKK
IATA: BJI
Category: Medium
Scheduled Services: Yes

Elevation: 10 ft
TransAlt. 11000 ft.

Airport Communications:
KINABALU APP:119.1
KINABALU RDO:682.5
KINABALU CON:126.1
ATIS:127.4
KINABALU GND:121.6
KINABALU:133.3
KINABALU TWR:118.3

WBKK Zoom In..

Runways:

(A) RW 02 length 12402 ft width 148 ft
ILS 108.10 / hdg 23

(B) RW 20 length 12402 ft width 148 ft
---- / hdg 203

Location; WBKK
Day. 05 / Time. 17.00 Zulu
* QNH: 1008
* Temperature: 25° c. 77°f.
* Wind from: 100° Speed 04 kn.
Dewpoint: 24° c.
Visibility: 10 km or more.
Clouds: Few 1400 ft.
No significant changes expected in the near future.

WBKK 051700Z 10004KT 9999 FEW014 25/24 Q1008 NOSIG

Going to: --> -->


Wind From 100°
Speed 04 kn.

 
 
jpsmedia worldairports.se 2020   terms of use